• Join FlightAware (Why Join?)
  • Login
  • US Flag 
08:16PM EST


 

Airport Tracker/Info


-or-


 

Live Flight TrackerFlight Track Log ✈ NKS971 ✈ 14-Apr-2014 ✈ KDFW - KPHX

Flight Track Log - Related Links

Times and Time Zones

All times are in EDT time to prevent confusion due to time zone crossing. See the NKS971 flight status page for this flight to view local times or setup timezone preferences in your user account.

Time Position Orientation Groundspeed Altitude Reporting Facility
EDT Latitude Longitude Course Direction KTS MPH feet Rate Location/Type
12:27AM 32.9235 -97.0516 357° North 143 165 2,200  Level FlightAware ADS-B
12:28AM 32.9385 -97.0527 353° North 163 188 2,800 1,650 Climbing FlightAware ADS-B
12:28AM 32.9545 -97.0576 343° North 192 221 3,300 1,650 Climbing FlightAware ADS-B
12:28AM 32.9728 -97.0646 341° North 217 250 3,900 2,927 Climbing FlightAware ADS-B
12:29AM 32.9934 -97.0735 337° Northwest 222 255 5,300 3,724 Climbing FlightAware ADS-B
12:29AM 33.0007 -97.0789 324° Northwest 226 260 5,700 3,429 Climbing FlightAware ADS-B
12:29AM 33.0094 -97.0925 298° West 242 278 6,500 3,300 Climbing FlightAware ADS-B (LKPR / PRG)
12:29AM 33.0118 -97.1007 286° West 250 288 6,800 3,200 Climbing FlightAware ADS-B
12:29AM 33.0127 -97.1120 273° West 257 296 7,300 3,600 Climbing FlightAware ADS-B
12:29AM 33.0110 -97.1283 261° West 261 300 8,000 4,182 Climbing FlightAware ADS-B
12:30AM 33.0079 -97.1572 263° West 247 284 9,600 4,138 Climbing FlightAware ADS-B
12:30AM 33.0070 -97.1685 264° West 249 287 10,000 2,400 Climbing FlightAware ADS-B
12:30AM 33.0031 -97.2147 263° West 274 315 11,200 2,038 Climbing FlightAware ADS-B
12:31AM 32.9971 -97.2480 248° West 308 354 11,800 1,875 Climbing FlightAware ADS-B
12:31AM 32.9917 -97.2586 234° Southwest 324 373 12,200 2,500 Climbing FlightAware ADS-B (LKPR / PRG)
12:32AM 32.9559 -97.3190 236° Southwest 331 381 13,800 2,846 Climbing FlightAware ADS-B
12:32AM 32.9214 -97.3818 236° Southwest 331 381 15,900 2,927 Climbing FlightAware ADS-B
12:33AM 32.8873 -97.4436 237° Southwest 332 382 17,800 2,444 Climbing FlightAware ADS-B (LKPR / PRG)
12:34AM 32.8527 -97.5062 236° Southwest 340 391 19,200 2,211 Climbing FlightAware ADS-B
12:34AM 32.8221 -97.5611 236° Southwest 345 397 20,600 2,261 Climbing FlightAware ADS-B
12:35AM 32.7924 -97.6143 236° Southwest 347 399 21,800 2,195 Climbing FlightAware ADS-B
12:35AM 32.7849 -97.6277 236° Southwest 347 399 22,100 1,800 Climbing FlightAware ADS-B
12:35AM 32.7629 -97.6674 236° Southwest 353 406 23,000 1,714 Climbing FlightAware ADS-B
12:36AM 32.7321 -97.7265 237° Southwest 358 412 23,900 2,000 Climbing FlightAware ADS-B (LKPR / PRG)
12:36AM 32.7259 -97.7622 266° West 343 395 24,600 1,920 Climbing FlightAware ADS-B
12:37AM 32.7260 -97.8256 270° West 351 404 25,500 1,808 Climbing FlightAware ADS-B
12:37AM 32.7263 -97.9025 270° West 350 403 26,800 1,630 Climbing FlightAware ADS-B
12:38AM 32.7263 -97.9770 269° West 355 409 27,700 1,325 Climbing FlightAware ADS-B
12:39AM 32.7197 -98.0515 261° West 361 415 28,500 1,043 Climbing FlightAware ADS-B
12:39AM 32.7114 -98.1179 261° West 374 430 28,900 923 Climbing FlightAware ADS-B
12:40AM 32.7090 -98.1365 261° West 377 434 29,500 968 Climbing FlightAware ADS-B
12:41AM 32.6911 -98.2836 261° West 374 430 30,400 1,082 Climbing Fort Worth Center
12:42AM 32.6753 -98.4094 262° West 382 440 31,700 2,182 Climbing Fort Worth Center
12:43AM 32.6600 -98.5286 261° West 374 430 34,800 1,785 Climbing Fort Worth Center
12:44AM 32.6431 -98.6625 261° West 349 402 35,300 590 Climbing Fort Worth Center
12:45AM 32.6289 -98.7778 262° West 349 402 36,000 347 Climbing Fort Worth Center
12:46AM 32.6117 -98.8989 260° West 364 419 36,000  Level Fort Worth Center
12:47AM 32.5961 -99.0203 261° West 368 423 36,000  Level Fort Worth Center
12:48AM 32.5800 -99.1414 261° West 369 425 36,000  Level Fort Worth Center
12:49AM 32.5642 -99.2642 261° West 372 428 36,000  Level Fort Worth Center
12:50AM 32.5469 -99.3861 261° West 373 429 36,000  Level Fort Worth Center
12:51AM 32.5300 -99.5081 261° West 372 428 36,000  Level Fort Worth Center
12:52AM 32.5131 -99.6300 261° West 372 428 36,000  Level Fort Worth Center
12:53AM 32.4958 -99.7525 261° West 370 426 36,000  Level Fort Worth Center
12:54AM 32.4794 -99.8758 261° West 372 428 36,000  Level Fort Worth Center
12:55AM 32.4739 -99.9989 267° West 372 428 36,000  Level Fort Worth Center
12:56AM 32.4678 -100.1211 267° West 370 426 36,000  Level Fort Worth Center
12:57AM 32.4608 -100.2425 266° West 368 423 36,000  Level Fort Worth Center
12:58AM 32.4542 -100.3622 266° West 366 421 36,000 -50 Level Fort Worth Center
12:59AM 32.4472 -100.4825 266° West 365 420 35,900  Descending Fort Worth Center
01:00AM 32.4408 -100.6025 266° West 365 420 36,000 50 Climbing Fort Worth Center
01:01AM 32.4333 -100.7219 266° West 365 420 36,000  Level Fort Worth Center
01:02AM 32.4267 -100.8442 266° West 368 423 36,000  Level Fort Worth Center
01:03AM 32.4192 -100.9653 266° West 368 423 36,000  Level Fort Worth Center
01:04AM 32.4133 -101.0853 267° West 367 422 36,000  Level Fort Worth Center
01:05AM 32.4047 -101.2047 265° West 365 420 36,000 -50 Level Fort Worth Center
01:06AM 32.3975 -101.3186 266° West 366 421 35,900  Descending Fort Worth Center
01:07AM 32.3894 -101.4383 265° West 367 422 36,000 50 Climbing Fort Worth Center
01:08AM 32.3814 -101.5603 266° West 370 426 36,000  Level Fort Worth Center
01:09AM 32.3717 -101.6817 265° West 371 427 36,000  Level Fort Worth Center
01:10AM 32.3633 -101.8047 265° West 373 429 36,000  Level Fort Worth Center
01:11AM 32.3533 -101.9261 264° West 372 428 36,000  Level Fort Worth Center
01:12AM 32.3439 -102.0500 265° West 374 430 36,000  Level Fort Worth Center
01:13AM 32.3339 -102.1747 265° West 375 432 36,000  Level Fort Worth Center
01:14AM 32.3236 -102.2992 264° West 376 433 36,000  Level Fort Worth Center
01:15AM 32.3147 -102.4261 265° West 378 435 36,000  Level Fort Worth Center
01:16AM 32.3047 -102.5525 265° West 379 436 36,000  Level Fort Worth Center
01:17AM 32.2939 -102.6792 264° West 380 437 36,000  Level Fort Worth Center
01:18AM 32.2844 -102.8039 265° West 380 437 36,000  Level Fort Worth Center
01:20AM 32.2633 -103.0539 264° West 380 437 36,000  Level Fort Worth Center
01:21AM 32.2525 -103.1800 264° West 383 441 36,000  Level Fort Worth Center
01:22AM 32.2417 -103.3058 264° West 383 441 36,000  Level Fort Worth Center
01:23AM 32.2311 -103.4317 264° West 385 443 36,000  Level Fort Worth Center
01:24AM 32.2183 -103.5578 263° West 385 443 36,000  Level Fort Worth Center
01:25AM 32.2081 -103.6839 265° West 385 443 36,000  Level Fort Worth Center
01:26AM 32.1983 -103.8092 265° West 384 442 36,000  Level Albuquerque Center
01:27AM 32.1853 -103.9614 264° West 388 447 36,000 -50 Level Albuquerque Center
01:28AM 32.1750 -104.0717 264° West 388 447 35,900 -50 Descending Albuquerque Center
01:29AM 32.1619 -104.1972 263° West 388 447 35,900  Level Albuquerque Center
01:30AM 32.1517 -104.3253 265° West 388 447 35,900  Level Albuquerque Center
01:31AM 32.1389 -104.4508 263° West 388 447 35,900  Level Albuquerque Center
01:32AM 32.1269 -104.5789 264° West 390 449 35,900 50 Level Albuquerque Center
01:33AM 32.1128 -104.7053 262° West 390 449 36,000 50 Climbing Albuquerque Center
01:34AM 32.0992 -104.8583 264° West 391 450 36,000  Level Albuquerque Center
01:35AM 32.0864 -104.9856 263° West 391 450 36,000 -49 Level Albuquerque Center
01:36AM 32.0747 -105.1108 264° West 391 450 35,900 -49 Descending Albuquerque Center
01:37AM 32.0614 -105.2353 263° West 389 448 35,900  Level Albuquerque Center
01:38AM 32.0483 -105.3611 263° West 389 448 35,900  Level Albuquerque Center
01:39AM 32.0358 -105.4864 263° West 389 448 35,900  Level Albuquerque Center
01:40AM 32.0225 -105.6114 263° West 388 447 35,900 50 Level Albuquerque Center
01:41AM 32.0094 -105.7369 263° West 387 445 36,000  Climbing Albuquerque Center
01:42AM 31.9958 -105.8619 263° West 387 445 35,900 -48 Descending Albuquerque Center
01:43AM 31.9836 -105.9836 263° West 387 445 35,900  Level Albuquerque Center
01:44AM 31.9697 -106.1081 263° West 386 444 35,900 50 Level Albuquerque Center
01:45AM 31.9567 -106.2328 263° West 386 444 36,000  Climbing Albuquerque Center
01:46AM 31.9625 -106.3586 273° West 386 444 35,900 -51 Descending Albuquerque Center
01:47AM 31.9775 -106.4819 278° West 385 443 35,900 49 Level Albuquerque Center
01:48AM 31.9919 -106.6067 278° West 385 443 36,000 49 Climbing Albuquerque Center
01:49AM 32.0064 -106.7311 278° West 385 443 36,000 -50 Level Albuquerque Center
01:50AM 32.0206 -106.8553 278° West 384 442 35,900 -49 Descending Albuquerque Center
01:51AM 32.0347 -106.9794 278° West 384 442 35,900  Level Albuquerque Center
01:52AM 32.0478 -107.1044 277° West 384 442 35,900  Level Albuquerque Center
01:53AM 32.0619 -107.2292 278° West 384 442 35,900 49 Level Albuquerque Center
01:54AM 32.0756 -107.3550 277° West 384 442 36,000 49 Climbing Albuquerque Center
01:55AM 32.0889 -107.4822 277° West 386 444 36,000  Level Albuquerque Center
01:56AM 32.1019 -107.6078 277° West 386 444 36,000 -50 Level Albuquerque Center
01:57AM 32.1156 -107.7325 277° West 386 444 35,900 -51 Descending Albuquerque Center
01:58AM 32.1283 -107.8569 277° West 384 442 35,900  Level Albuquerque Center
01:59AM 32.1417 -107.9828 277° West 384 442 35,900 50 Level Albuquerque Center
02:00AM 32.1544 -108.1072 277° West 384 442 36,000  Climbing Albuquerque Center
02:02AM 32.1678 -108.2314 277° West 384 442 35,900  Descending Albuquerque Center
02:07AM 32.3728 -108.9268 293° West 383 441 36,000 17 Climbing FlightAware ADS-B
02:07AM 32.3792 -108.9444 293° West 384 442 36,000  Level FlightAware ADS-B
02:08AM 32.3813 -108.9501 293° West 384 442 36,000  Level FlightAware ADS-B
02:09AM 32.4329 -109.0917 293° West 384 442 36,000  Level FlightAware ADS-B (VRMM / MLE)
02:09AM 32.4645 -109.1788 293° West 384 442 36,000  Level FlightAware ADS-B
02:10AM 32.4932 -109.2586 293° West 384 442 36,000  Level FlightAware ADS-B
02:11AM 32.5220 -109.3383 293° West 383 441 36,000 -243 Level FlightAware ADS-B
02:11AM 32.5464 -109.4060 293° West 383 441 35,700 -774 Descending FlightAware ADS-B (VRMM / MLE)
02:12AM 32.5742 -109.4834 293° West 388 447 34,800 -973 Descending FlightAware ADS-B
02:13AM 32.5979 -109.5496 292° West 386 444 34,500 -1,021 Descending FlightAware ADS-B (VRMM / MLE)
02:13AM 32.6201 -109.6114 293° West 390 449 34,000 -960 Descending FlightAware ADS-B
02:13AM 32.6334 -109.6485 293° West 390 449 33,700 -906 Descending FlightAware ADS-B
02:14AM 32.6577 -109.7170 292° West 388 447 33,200 -938 Descending FlightAware ADS-B (VRMM / MLE)
02:15AM 32.7009 -109.8383 292° West 388 447 32,200 -1,009 Descending FlightAware ADS-B (VRMM / MLE)
02:16AM 32.7203 -109.8932 293° West 399 459 31,400 -1,000 Descending FlightAware ADS-B
02:17AM 32.7730 -110.0426 292° West 400 460 30,500 -947 Descending FlightAware ADS-B (VRMM / MLE)
02:17AM 32.7879 -110.0850 292° West 399 459 30,200 -968 Descending FlightAware ADS-B (VRMM / MLE)
02:18AM 32.7660 -110.0228 293° West 398 458 29,000 -1,324 Descending FlightAware ADS-B
02:19AM 32.8896 -110.3744 292° West 394 453 27,000 -2,092 Descending FlightAware ADS-B
02:21AM 32.9738 -110.6166 292° West 387 445 22,200 -2,319 Descending FlightAware ADS-B (VRMM / MLE)
02:22AM 33.0021 -110.6989 292° West 385 443 20,700 -2,219 Descending FlightAware ADS-B (VRMM / MLE)
02:23AM 33.0239 -110.7622 292° West 380 437 19,500 -2,190 Descending FlightAware ADS-B (VRMM / MLE)
02:23AM 33.0433 -110.8182 291° West 371 427 18,400 -2,130 Descending FlightAware ADS-B (VRMM / MLE)
02:25AM 33.1110 -111.0157 292° West 349 402 14,600 -1,486 Descending FlightAware ADS-B (VRMM / MLE)
02:27AM 33.1764 -111.2156 284° West 340 391 13,000 -1,061 Descending FlightAware ADS-B
02:27AM 33.1844 -111.2757 279° West 333 383 12,000 -1,852 Descending FlightAware ADS-B
02:28AM 33.1960 -111.3623 279° West 337 388 10,500 -1,520 Descending FlightAware ADS-B
02:29AM 33.2027 -111.4118 279° West 323 372 10,100 -554 Descending FlightAware ADS-B (VRMM / MLE)
02:29AM 33.2116 -111.4744 280° West 303 349 9,900 -218 Descending FlightAware ADS-B
02:30AM 33.2166 -111.5097 280° West 316 364 9,900 77 Level FlightAware ADS-B
02:31AM 33.2309 -111.6059 280° West 328 377 10,000  Climbing FlightAware ADS-B
02:31AM 33.2379 -111.6528 280° West 323 372 9,900  Descending FlightAware ADS-B
02:32AM 33.2456 -111.7040 280° West 306 352 10,000 111 Climbing FlightAware ADS-B (VRMM / MLE)
02:32AM 33.2399 -111.6664 280° West 302 348 10,000  Level FlightAware ADS-B
02:33AM 33.2719 -111.8806 280° West 256 295 10,000 -41 Level FlightAware ADS-B
02:34AM 33.2830 -111.9548 280° West 257 296 9,900 -587 Descending FlightAware ADS-B
02:35AM 33.2909 -112.0082 280° West 256 295 9,100 -1,000 Descending FlightAware ADS-B
02:36AM 33.3000 -112.0500 280° West 255 293 8,600 -1,041 Descending Phoenix TRACON
02:37AM 33.3167 -112.1333 283° West 246 283 7,400 -1,300 Descending Phoenix TRACON
02:38AM 33.3333 -112.2000 287° West 237 273 6,000 -1,150 Descending Phoenix TRACON
02:39AM 33.4000 -112.2167 348° North 221 254 5,100 -1,250 Descending Phoenix TRACON
02:40AM 33.4167 -112.1667 68° East 164 189 3,500 -1,200 Descending Phoenix TRACON
02:41AM 33.4333 -112.1333 59° Northeast 132 152 2,700 -700 Descending Phoenix TRACON
02:42AM 33.4333 -112.0833 90° East 128 147 2,100 -645 Descending Phoenix TRACON
02:43AM 33.4333 -112.0500 90° East 129 148 1,400 -689 Descending Phoenix TRACON